sensor_id;sensor_type;location;lat;lon;timestamp;P1;durP1;ratioP1;P2;durP2;ratioP2
15317;SDS011;7759;52.528;13.346;2023-02-22T00:00:35;12.83;;;2.20;;
15317;SDS011;7759;52.528;13.346;2023-02-22T00:03:10;7.83;;;2.00;;
15317;SDS011;7759;52.528;13.346;2023-02-22T00:05:39;9.47;;;2.97;;
15317;SDS011;7759;52.528;13.346;2023-02-22T00:08:09;8.73;;;1.83;;
15317;SDS011;7759;52.528;13.346;2023-02-22T00:10:35;7.57;;;2.33;;
15317;SDS011;7759;52.528;13.346;2023-02-22T00:13:02;6.97;;;2.30;;
15317;SDS011;7759;52.528;13.346;2023-02-22T00:15:28;7.73;;;2.53;;
15317;SDS011;7759;52.528;13.346;2023-02-22T00:17:54;10.80;;;2.10;;
15317;SDS011;7759;52.528;13.346;2023-02-22T00:20:21;9.80;;;2.23;;
15317;SDS011;7759;52.528;13.346;2023-02-22T00:22:48;7.60;;;2.10;;
15317;SDS011;7759;52.528;13.346;2023-02-22T00:25:16;4.83;;;1.83;;
15317;SDS011;7759;52.528;13.346;2023-02-22T00:27:42;8.20;;;1.80;;
15317;SDS011;7759;52.528;13.346;2023-02-22T00:30:09;8.20;;;1.83;;
15317;SDS011;7759;52.528;13.346;2023-02-22T00:32:38;11.83;;;2.33;;
15317;SDS011;7759;52.528;13.346;2023-02-22T00:35:04;9.47;;;1.90;;
15317;SDS011;7759;52.528;13.346;2023-02-22T00:37:32;11.50;;;2.43;;
15317;SDS011;7759;52.528;13.346;2023-02-22T00:39:59;4.10;;;1.50;;
15317;SDS011;7759;52.528;13.346;2023-02-22T00:42:25;5.50;;;1.97;;
15317;SDS011;7759;52.528;13.346;2023-02-22T00:44:51;7.87;;;2.10;;
15317;SDS011;7759;52.528;13.346;2023-02-22T00:47:17;8.23;;;1.73;;
15317;SDS011;7759;52.528;13.346;2023-02-22T00:49:43;7.27;;;1.43;;
15317;SDS011;7759;52.528;13.346;2023-02-22T00:52:09;6.93;;;1.60;;
15317;SDS011;7759;52.528;13.346;2023-02-22T00:54:35;3.37;;;1.47;;
15317;SDS011;7759;52.528;13.346;2023-02-22T00:57:01;7.50;;;1.40;;
15317;SDS011;7759;52.528;13.346;2023-02-22T00:59:27;13.57;;;1.87;;
15317;SDS011;7759;52.528;13.346;2023-02-22T01:01:55;5.80;;;1.60;;
15317;SDS011;7759;52.528;13.346;2023-02-22T01:04:20;6.57;;;1.83;;
15317;SDS011;7759;52.528;13.346;2023-02-22T01:06:46;6.53;;;2.17;;
15317;SDS011;7759;52.528;13.346;2023-02-22T01:09:12;6.30;;;1.30;;
15317;SDS011;7759;52.528;13.346;2023-02-22T01:11:38;8.13;;;1.63;;
15317;SDS011;7759;52.528;13.346;2023-02-22T01:14:05;8.33;;;1.63;;
15317;SDS011;7759;52.528;13.346;2023-02-22T01:16:33;6.63;;;1.70;;
15317;SDS011;7759;52.528;13.346;2023-02-22T01:18:59;8.47;;;2.13;;
15317;SDS011;7759;52.528;13.346;2023-02-22T01:21:25;7.83;;;2.03;;
15317;SDS011;7759;52.528;13.346;2023-02-22T01:23:51;8.57;;;1.77;;
15317;SDS011;7759;52.528;13.346;2023-02-22T01:26:18;9.47;;;1.57;;
15317;SDS011;7759;52.528;13.346;2023-02-22T01:28:45;6.83;;;1.83;;
15317;SDS011;7759;52.528;13.346;2023-02-22T01:31:10;9.67;;;1.80;;
15317;SDS011;7759;52.528;13.346;2023-02-22T01:33:38;7.00;;;1.40;;
15317;SDS011;7759;52.528;13.346;2023-02-22T01:36:04;6.60;;;1.60;;
15317;SDS011;7759;52.528;13.346;2023-02-22T01:38:35;5.93;;;1.60;;
15317;SDS011;7759;52.528;13.346;2023-02-22T01:41:01;6.07;;;1.20;;
15317;SDS011;7759;52.528;13.346;2023-02-22T01:43:28;7.17;;;2.00;;
15317;SDS011;7759;52.528;13.346;2023-02-22T01:45:59;13.67;;;2.50;;
15317;SDS011;7759;52.528;13.346;2023-02-22T01:48:39;6.73;;;1.57;;
15317;SDS011;7759;52.528;13.346;2023-02-22T01:51:11;7.77;;;2.17;;
15317;SDS011;7759;52.528;13.346;2023-02-22T01:53:40;8.77;;;1.63;;
15317;SDS011;7759;52.528;13.346;2023-02-22T01:56:07;6.20;;;1.50;;
15317;SDS011;7759;52.528;13.346;2023-02-22T01:58:34;8.17;;;1.90;;
15317;SDS011;7759;52.528;13.346;2023-02-22T02:01:01;5.00;;;1.57;;
15317;SDS011;7759;52.528;13.346;2023-02-22T02:03:28;9.00;;;2.07;;
15317;SDS011;7759;52.528;13.346;2023-02-22T02:05:55;8.53;;;1.63;;
15317;SDS011;7759;52.528;13.346;2023-02-22T02:08:26;7.70;;;2.13;;
15317;SDS011;7759;52.528;13.346;2023-02-22T02:10:54;7.93;;;1.80;;
15317;SDS011;7759;52.528;13.346;2023-02-22T02:13:20;16.33;;;2.30;;
15317;SDS011;7759;52.528;13.346;2023-02-22T02:15:46;4.97;;;1.50;;
15317;SDS011;7759;52.528;13.346;2023-02-22T02:18:13;7.17;;;1.73;;
15317;SDS011;7759;52.528;13.346;2023-02-22T02:20:47;4.97;;;1.73;;
15317;SDS011;7759;52.528;13.346;2023-02-22T02:34:17;4.03;;;1.30;;
15317;SDS011;7759;52.528;13.346;2023-02-22T02:37:00;4.37;;;1.60;;
15317;SDS011;7759;52.528;13.346;2023-02-22T02:39:38;8.77;;;1.77;;
15317;SDS011;7759;52.528;13.346;2023-02-22T02:42:06;5.17;;;1.83;;
15317;SDS011;7759;52.528;13.346;2023-02-22T02:44:36;11.00;;;2.03;;
15317;SDS011;7759;52.528;13.346;2023-02-22T02:47:09;7.27;;;1.77;;
15317;SDS011;7759;52.528;13.346;2023-02-22T02:49:42;5.53;;;1.47;;
15317;SDS011;7759;52.528;13.346;2023-02-22T02:52:09;14.67;;;2.07;;
15317;SDS011;7759;52.528;13.346;2023-02-22T02:54:37;7.57;;;2.50;;
15317;SDS011;7759;52.528;13.346;2023-02-22T02:57:03;8.70;;;1.80;;
15317;SDS011;7759;52.528;13.346;2023-02-22T02:59:31;15.17;;;1.97;;
15317;SDS011;7759;52.528;13.346;2023-02-22T03:02:09;7.00;;;1.80;;
15317;SDS011;7759;52.528;13.346;2023-02-22T03:04:51;6.90;;;1.60;;
15317;SDS011;7759;52.528;13.346;2023-02-22T03:07:29;8.27;;;1.53;;
15317;SDS011;7759;52.528;13.346;2023-02-22T03:10:17;10.97;;;1.83;;
15317;SDS011;7759;52.528;13.346;2023-02-22T03:15:32;9.57;;;1.70;;
15317;SDS011;7759;52.528;13.346;2023-02-22T03:18:05;6.77;;;1.67;;
15317;SDS011;7759;52.528;13.346;2023-02-22T03:23:23;2.47;;;1.23;;
15317;SDS011;7759;52.528;13.346;2023-02-22T03:26:02;5.10;;;1.63;;
15317;SDS011;7759;52.528;13.346;2023-02-22T03:28:29;8.80;;;1.83;;
15317;SDS011;7759;52.528;13.346;2023-02-22T03:33:57;5.57;;;1.83;;
15317;SDS011;7759;52.528;13.346;2023-02-22T03:36:28;6.83;;;1.20;;
15317;SDS011;7759;52.528;13.346;2023-02-22T03:38:57;7.07;;;1.50;;
15317;SDS011;7759;52.528;13.346;2023-02-22T03:41:24;5.53;;;1.60;;
15317;SDS011;7759;52.528;13.346;2023-02-22T03:43:59;5.77;;;1.33;;
15317;SDS011;7759;52.528;13.346;2023-02-22T03:46:26;9.37;;;1.80;;
15317;SDS011;7759;52.528;13.346;2023-02-22T03:48:58;10.47;;;2.23;;
15317;SDS011;7759;52.528;13.346;2023-02-22T03:51:26;7.77;;;1.73;;
15317;SDS011;7759;52.528;13.346;2023-02-22T03:53:53;9.10;;;2.13;;
15317;SDS011;7759;52.528;13.346;2023-02-22T03:56:24;7.20;;;1.73;;
15317;SDS011;7759;52.528;13.346;2023-02-22T03:58:52;8.67;;;1.83;;
15317;SDS011;7759;52.528;13.346;2023-02-22T04:01:18;11.83;;;2.10;;
15317;SDS011;7759;52.528;13.346;2023-02-22T04:03:47;9.73;;;2.30;;
15317;SDS011;7759;52.528;13.346;2023-02-22T04:06:13;4.53;;;1.60;;
15317;SDS011;7759;52.528;13.346;2023-02-22T04:08:39;8.80;;;1.83;;
15317;SDS011;7759;52.528;13.346;2023-02-22T04:11:07;10.17;;;1.90;;
15317;SDS011;7759;52.528;13.346;2023-02-22T04:13:33;8.13;;;1.63;;
15317;SDS011;7759;52.528;13.346;2023-02-22T04:15:59;7.43;;;1.93;;
15317;SDS011;7759;52.528;13.346;2023-02-22T04:18:25;7.60;;;1.60;;
15317;SDS011;7759;52.528;13.346;2023-02-22T04:20:51;10.77;;;2.33;;
15317;SDS011;7759;52.528;13.346;2023-02-22T04:23:17;5.10;;;1.50;;
15317;SDS011;7759;52.528;13.346;2023-02-22T04:25:43;6.13;;;1.20;;
15317;SDS011;7759;52.528;13.346;2023-02-22T04:28:09;9.03;;;2.00;;
15317;SDS011;7759;52.528;13.346;2023-02-22T04:30:35;5.63;;;1.40;;
15317;SDS011;7759;52.528;13.346;2023-02-22T04:33:00;6.80;;;1.63;;
15317;SDS011;7759;52.528;13.346;2023-02-22T04:35:26;8.70;;;2.07;;
15317;SDS011;7759;52.528;13.346;2023-02-22T04:37:52;8.50;;;1.50;;
15317;SDS011;7759;52.528;13.346;2023-02-22T04:40:18;10.73;;;2.27;;
15317;SDS011;7759;52.528;13.346;2023-02-22T04:42:44;5.40;;;1.63;;
15317;SDS011;7759;52.528;13.346;2023-02-22T04:45:10;8.60;;;1.90;;
15317;SDS011;7759;52.528;13.346;2023-02-22T04:47:36;10.60;;;2.07;;
15317;SDS011;7759;52.528;13.346;2023-02-22T04:50:03;5.83;;;1.40;;
15317;SDS011;7759;52.528;13.346;2023-02-22T04:52:29;9.43;;;1.63;;
15317;SDS011;7759;52.528;13.346;2023-02-22T04:54:55;7.20;;;1.53;;
15317;SDS011;7759;52.528;13.346;2023-02-22T04:57:21;5.53;;;1.60;;
15317;SDS011;7759;52.528;13.346;2023-02-22T04:59:46;8.07;;;1.87;;
15317;SDS011;7759;52.528;13.346;2023-02-22T05:02:12;6.00;;;1.90;;
15317;SDS011;7759;52.528;13.346;2023-02-22T05:04:38;7.00;;;1.53;;
15317;SDS011;7759;52.528;13.346;2023-02-22T05:07:04;7.77;;;1.67;;
15317;SDS011;7759;52.528;13.346;2023-02-22T05:09:30;5.37;;;1.83;;
15317;SDS011;7759;52.528;13.346;2023-02-22T05:11:56;10.73;;;2.10;;
15317;SDS011;7759;52.528;13.346;2023-02-22T05:14:22;6.40;;;1.80;;
15317;SDS011;7759;52.528;13.346;2023-02-22T05:16:50;11.07;;;1.93;;
15317;SDS011;7759;52.528;13.346;2023-02-22T05:19:16;6.17;;;2.27;;
15317;SDS011;7759;52.528;13.346;2023-02-22T05:21:42;8.77;;;2.23;;
15317;SDS011;7759;52.528;13.346;2023-02-22T05:24:08;9.70;;;2.33;;
15317;SDS011;7759;52.528;13.346;2023-02-22T05:26:34;8.07;;;2.87;;
15317;SDS011;7759;52.528;13.346;2023-02-22T05:29:00;8.90;;;2.10;;
15317;SDS011;7759;52.528;13.346;2023-02-22T05:31:26;5.23;;;1.80;;
15317;SDS011;7759;52.528;13.346;2023-02-22T05:33:51;8.70;;;2.00;;
15317;SDS011;7759;52.528;13.346;2023-02-22T05:36:17;10.70;;;2.40;;
15317;SDS011;7759;52.528;13.346;2023-02-22T05:38:43;9.40;;;2.33;;
15317;SDS011;7759;52.528;13.346;2023-02-22T05:41:10;7.30;;;1.87;;
15317;SDS011;7759;52.528;13.346;2023-02-22T05:43:36;5.93;;;2.03;;
15317;SDS011;7759;52.528;13.346;2023-02-22T05:46:02;5.57;;;2.40;;
15317;SDS011;7759;52.528;13.346;2023-02-22T05:48:28;7.77;;;2.30;;
15317;SDS011;7759;52.528;13.346;2023-02-22T05:50:55;7.10;;;2.37;;
15317;SDS011;7759;52.528;13.346;2023-02-22T05:53:20;9.53;;;2.33;;
15317;SDS011;7759;52.528;13.346;2023-02-22T05:55:47;5.90;;;1.87;;
15317;SDS011;7759;52.528;13.346;2023-02-22T05:58:13;9.23;;;2.17;;
15317;SDS011;7759;52.528;13.346;2023-02-22T06:00:39;7.13;;;2.27;;
15317;SDS011;7759;52.528;13.346;2023-02-22T06:03:06;11.53;;;2.33;;
15317;SDS011;7759;52.528;13.346;2023-02-22T06:05:33;8.03;;;1.93;;
15317;SDS011;7759;52.528;13.346;2023-02-22T06:07:59;10.57;;;2.40;;
15317;SDS011;7759;52.528;13.346;2023-02-22T06:10:25;8.93;;;2.17;;
15317;SDS011;7759;52.528;13.346;2023-02-22T06:12:51;8.33;;;2.13;;
15317;SDS011;7759;52.528;13.346;2023-02-22T06:15:18;8.63;;;2.03;;
15317;SDS011;7759;52.528;13.346;2023-02-22T06:17:44;9.93;;;2.33;;
15317;SDS011;7759;52.528;13.346;2023-02-22T06:20:12;8.70;;;2.13;;
15317;SDS011;7759;52.528;13.346;2023-02-22T06:22:38;7.03;;;2.07;;
15317;SDS011;7759;52.528;13.346;2023-02-22T06:25:07;8.17;;;2.30;;
15317;SDS011;7759;52.528;13.346;2023-02-22T06:27:33;7.97;;;2.30;;
15317;SDS011;7759;52.528;13.346;2023-02-22T06:30:01;10.40;;;2.10;;
15317;SDS011;7759;52.528;13.346;2023-02-22T06:32:27;5.60;;;1.93;;
15317;SDS011;7759;52.528;13.346;2023-02-22T06:34:53;8.70;;;2.23;;
15317;SDS011;7759;52.528;13.346;2023-02-22T06:37:19;8.50;;;2.50;;
15317;SDS011;7759;52.528;13.346;2023-02-22T06:39:45;13.80;;;2.77;;
15317;SDS011;7759;52.528;13.346;2023-02-22T06:42:10;8.80;;;2.40;;
15317;SDS011;7759;52.528;13.346;2023-02-22T06:44:36;11.27;;;2.43;;
15317;SDS011;7759;52.528;13.346;2023-02-22T06:47:02;11.60;;;2.23;;
15317;SDS011;7759;52.528;13.346;2023-02-22T06:49:28;10.73;;;2.20;;
15317;SDS011;7759;52.528;13.346;2023-02-22T06:51:54;7.13;;;2.47;;
15317;SDS011;7759;52.528;13.346;2023-02-22T06:54:20;8.40;;;2.13;;
15317;SDS011;7759;52.528;13.346;2023-02-22T06:56:46;12.93;;;2.27;;
15317;SDS011;7759;52.528;13.346;2023-02-22T06:59:13;8.37;;;2.13;;
15317;SDS011;7759;52.528;13.346;2023-02-22T07:01:39;9.87;;;2.50;;
15317;SDS011;7759;52.528;13.346;2023-02-22T07:04:05;12.67;;;2.40;;
15317;SDS011;7759;52.528;13.346;2023-02-22T07:06:31;5.57;;;2.63;;
15317;SDS011;7759;52.528;13.346;2023-02-22T07:08:57;8.97;;;2.80;;
15317;SDS011;7759;52.528;13.346;2023-02-22T07:11:23;5.90;;;2.23;;
15317;SDS011;7759;52.528;13.346;2023-02-22T07:13:49;12.80;;;2.67;;
15317;SDS011;7759;52.528;13.346;2023-02-22T07:16:15;9.07;;;2.97;;
15317;SDS011;7759;52.528;13.346;2023-02-22T07:18:41;11.23;;;2.67;;
15317;SDS011;7759;52.528;13.346;2023-02-22T07:21:07;8.47;;;2.70;;
15317;SDS011;7759;52.528;13.346;2023-02-22T07:23:32;11.53;;;3.13;;
15317;SDS011;7759;52.528;13.346;2023-02-22T07:25:59;10.43;;;2.67;;
15317;SDS011;7759;52.528;13.346;2023-02-22T07:28:25;9.20;;;2.50;;
15317;SDS011;7759;52.528;13.346;2023-02-22T07:30:51;6.43;;;1.73;;
15317;SDS011;7759;52.528;13.346;2023-02-22T07:33:17;10.23;;;2.80;;
15317;SDS011;7759;52.528;13.346;2023-02-22T07:35:43;8.93;;;2.30;;
15317;SDS011;7759;52.528;13.346;2023-02-22T07:38:11;9.70;;;2.63;;
15317;SDS011;7759;52.528;13.346;2023-02-22T07:40:37;10.87;;;3.37;;
15317;SDS011;7759;52.528;13.346;2023-02-22T07:43:17;16.30;;;3.50;;
15317;SDS011;7759;52.528;13.346;2023-02-22T07:45:43;10.83;;;2.97;;
15317;SDS011;7759;52.528;13.346;2023-02-22T07:48:09;7.53;;;3.33;;
15317;SDS011;7759;52.528;13.346;2023-02-22T07:50:39;9.97;;;2.93;;
15317;SDS011;7759;52.528;13.346;2023-02-22T07:53:06;8.47;;;2.73;;
15317;SDS011;7759;52.528;13.346;2023-02-22T07:55:32;6.67;;;3.13;;
15317;SDS011;7759;52.528;13.346;2023-02-22T07:57:59;11.43;;;3.83;;
15317;SDS011;7759;52.528;13.346;2023-02-22T08:00:26;16.80;;;4.07;;
15317;SDS011;7759;52.528;13.346;2023-02-22T08:02:52;14.93;;;3.57;;
15317;SDS011;7759;52.528;13.346;2023-02-22T08:05:19;14.27;;;3.37;;
15317;SDS011;7759;52.528;13.346;2023-02-22T08:07:47;10.73;;;4.07;;
15317;SDS011;7759;52.528;13.346;2023-02-22T08:10:13;18.10;;;3.70;;
15317;SDS011;7759;52.528;13.346;2023-02-22T08:12:39;21.53;;;4.03;;
15317;SDS011;7759;52.528;13.346;2023-02-22T08:15:06;15.20;;;3.97;;
15317;SDS011;7759;52.528;13.346;2023-02-22T08:17:32;15.83;;;4.73;;
15317;SDS011;7759;52.528;13.346;2023-02-22T08:19:58;14.27;;;4.40;;
15317;SDS011;7759;52.528;13.346;2023-02-22T08:22:24;14.27;;;4.37;;
15317;SDS011;7759;52.528;13.346;2023-02-22T08:24:52;10.90;;;4.50;;
15317;SDS011;7759;52.528;13.346;2023-02-22T08:27:25;14.23;;;3.97;;
15317;SDS011;7759;52.528;13.346;2023-02-22T08:29:52;18.03;;;6.03;;
15317;SDS011;7759;52.528;13.346;2023-02-22T08:32:18;12.23;;;4.43;;
15317;SDS011;7759;52.528;13.346;2023-02-22T08:34:44;12.50;;;4.50;;
15317;SDS011;7759;52.528;13.346;2023-02-22T08:37:10;15.20;;;4.47;;
15317;SDS011;7759;52.528;13.346;2023-02-22T08:39:36;13.10;;;3.97;;
15317;SDS011;7759;52.528;13.346;2023-02-22T08:42:02;14.80;;;4.40;;
15317;SDS011;7759;52.528;13.346;2023-02-22T08:44:28;16.30;;;3.40;;
15317;SDS011;7759;52.528;13.346;2023-02-22T08:46:54;15.17;;;3.60;;
15317;SDS011;7759;52.528;13.346;2023-02-22T08:49:20;10.33;;;3.10;;
15317;SDS011;7759;52.528;13.346;2023-02-22T08:51:46;14.27;;;4.50;;
15317;SDS011;7759;52.528;13.346;2023-02-22T08:54:12;10.73;;;3.10;;
15317;SDS011;7759;52.528;13.346;2023-02-22T08:56:38;11.17;;;3.50;;
15317;SDS011;7759;52.528;13.346;2023-02-22T08:59:04;10.40;;;3.07;;
15317;SDS011;7759;52.528;13.346;2023-02-22T09:01:30;9.57;;;2.73;;
15317;SDS011;7759;52.528;13.346;2023-02-22T09:03:58;11.27;;;2.90;;
15317;SDS011;7759;52.528;13.346;2023-02-22T09:06:24;13.80;;;3.37;;
15317;SDS011;7759;52.528;13.346;2023-02-22T09:08:49;15.67;;;2.60;;
15317;SDS011;7759;52.528;13.346;2023-02-22T09:11:15;12.60;;;3.17;;
15317;SDS011;7759;52.528;13.346;2023-02-22T09:13:42;12.07;;;3.60;;
15317;SDS011;7759;52.528;13.346;2023-02-22T09:16:08;8.37;;;2.33;;
15317;SDS011;7759;52.528;13.346;2023-02-22T09:18:34;16.10;;;2.90;;
15317;SDS011;7759;52.528;13.346;2023-02-22T09:21:00;12.70;;;2.77;;
15317;SDS011;7759;52.528;13.346;2023-02-22T09:23:26;10.83;;;3.23;;
15317;SDS011;7759;52.528;13.346;2023-02-22T09:25:53;13.60;;;3.10;;
15317;SDS011;7759;52.528;13.346;2023-02-22T09:28:19;7.23;;;2.20;;
15317;SDS011;7759;52.528;13.346;2023-02-22T09:30:45;8.13;;;2.17;;
15317;SDS011;7759;52.528;13.346;2023-02-22T09:33:15;9.90;;;2.93;;
15317;SDS011;7759;52.528;13.346;2023-02-22T09:35:41;11.47;;;2.73;;
15317;SDS011;7759;52.528;13.346;2023-02-22T09:38:10;10.57;;;2.03;;
15317;SDS011;7759;52.528;13.346;2023-02-22T09:40:37;12.23;;;2.60;;
15317;SDS011;7759;52.528;13.346;2023-02-22T09:45:59;7.50;;;2.67;;
15317;SDS011;7759;52.528;13.346;2023-02-22T09:48:27;8.90;;;2.37;;
15317;SDS011;7759;52.528;13.346;2023-02-22T09:50:56;13.43;;;2.90;;
15317;SDS011;7759;52.528;13.346;2023-02-22T09:53:25;10.13;;;3.20;;
15317;SDS011;7759;52.528;13.346;2023-02-22T09:55:58;15.63;;;2.70;;
15317;SDS011;7759;52.528;13.346;2023-02-22T09:58:27;10.60;;;2.70;;
15317;SDS011;7759;52.528;13.346;2023-02-22T10:00:59;7.57;;;2.13;;
15317;SDS011;7759;52.528;13.346;2023-02-22T10:03:32;8.73;;;2.43;;
15317;SDS011;7759;52.528;13.346;2023-02-22T10:06:01;9.33;;;2.43;;
15317;SDS011;7759;52.528;13.346;2023-02-22T10:08:31;13.60;;;2.47;;
15317;SDS011;7759;52.528;13.346;2023-02-22T10:11:15;8.03;;;2.40;;
15317;SDS011;7759;52.528;13.346;2023-02-22T10:13:54;9.07;;;2.40;;
15317;SDS011;7759;52.528;13.346;2023-02-22T10:16:25;16.87;;;2.80;;
15317;SDS011;7759;52.528;13.346;2023-02-22T10:18:56;7.83;;;2.00;;
15317;SDS011;7759;52.528;13.346;2023-02-22T10:24:17;10.00;;;1.93;;
15317;SDS011;7759;52.528;13.346;2023-02-22T10:26:48;9.70;;;2.20;;
15317;SDS011;7759;52.528;13.346;2023-02-22T10:31:42;9.00;;;1.87;;
15317;SDS011;7759;52.528;13.346;2023-02-22T10:34:13;14.87;;;2.60;;
15317;SDS011;7759;52.528;13.346;2023-02-22T10:36:40;10.57;;;2.47;;
15317;SDS011;7759;52.528;13.346;2023-02-22T10:39:12;8.87;;;1.87;;
15317;SDS011;7759;52.528;13.346;2023-02-22T10:41:44;8.80;;;1.80;;
15317;SDS011;7759;52.528;13.346;2023-02-22T10:44:13;10.63;;;2.43;;
15317;SDS011;7759;52.528;13.346;2023-02-22T10:46:39;11.03;;;2.50;;
15317;SDS011;7759;52.528;13.346;2023-02-22T10:49:06;9.80;;;2.30;;
15317;SDS011;7759;52.528;13.346;2023-02-22T10:51:32;17.93;;;5.33;;
15317;SDS011;7759;52.528;13.346;2023-02-22T10:54:19;9.53;;;2.37;;
15317;SDS011;7759;52.528;13.346;2023-02-22T10:56:52;10.80;;;2.57;;
15317;SDS011;7759;52.528;13.346;2023-02-22T10:59:35;11.30;;;2.67;;
15317;SDS011;7759;52.528;13.346;2023-02-22T11:04:44;9.73;;;1.90;;
15317;SDS011;7759;52.528;13.346;2023-02-22T11:07:17;8.60;;;1.90;;
15317;SDS011;7759;52.528;13.346;2023-02-22T11:09:45;11.83;;;2.13;;
15317;SDS011;7759;52.528;13.346;2023-02-22T11:12:19;9.53;;;2.60;;
15317;SDS011;7759;52.528;13.346;2023-02-22T11:14:46;10.70;;;2.17;;
15317;SDS011;7759;52.528;13.346;2023-02-22T11:17:15;8.90;;;2.17;;
15317;SDS011;7759;52.528;13.346;2023-02-22T11:19:46;6.97;;;2.10;;
15317;SDS011;7759;52.528;13.346;2023-02-22T11:22:17;15.00;;;2.57;;
15317;SDS011;7759;52.528;13.346;2023-02-22T11:24:49;9.20;;;1.93;;
15317;SDS011;7759;52.528;13.346;2023-02-22T11:29:50;9.27;;;2.53;;
15317;SDS011;7759;52.528;13.346;2023-02-22T11:32:18;13.57;;;2.40;;
15317;SDS011;7759;52.528;13.346;2023-02-22T11:34:46;6.83;;;1.83;;
15317;SDS011;7759;52.528;13.346;2023-02-22T11:37:35;6.43;;;1.77;;
15317;SDS011;7759;52.528;13.346;2023-02-22T11:40:05;8.37;;;1.87;;
15317;SDS011;7759;52.528;13.346;2023-02-22T11:42:31;8.73;;;2.37;;
15317;SDS011;7759;52.528;13.346;2023-02-22T11:45:18;10.07;;;2.33;;
15317;SDS011;7759;52.528;13.346;2023-02-22T11:47:57;9.40;;;2.00;;
15317;SDS011;7759;52.528;13.346;2023-02-22T11:50:32;7.83;;;1.73;;
15317;SDS011;7759;52.528;13.346;2023-02-22T11:53:07;7.83;;;1.93;;
15317;SDS011;7759;52.528;13.346;2023-02-22T11:55:40;9.47;;;2.20;;
15317;SDS011;7759;52.528;13.346;2023-02-22T11:58:29;11.93;;;2.53;;
15317;SDS011;7759;52.528;13.346;2023-02-22T12:03:33;10.40;;;2.07;;
15317;SDS011;7759;52.528;13.346;2023-02-22T12:06:10;10.87;;;1.80;;
15317;SDS011;7759;52.528;13.346;2023-02-22T12:08:54;8.50;;;1.80;;
15317;SDS011;7759;52.528;13.346;2023-02-22T12:11:26;5.50;;;1.53;;
15317;SDS011;7759;52.528;13.346;2023-02-22T12:14:00;8.63;;;2.37;;
15317;SDS011;7759;52.528;13.346;2023-02-22T12:16:38;13.90;;;2.50;;
15317;SDS011;7759;52.528;13.346;2023-02-22T12:19:18;6.90;;;2.00;;
15317;SDS011;7759;52.528;13.346;2023-02-22T12:21:47;7.43;;;1.97;;
15317;SDS011;7759;52.528;13.346;2023-02-22T12:24:18;15.40;;;2.40;;
15317;SDS011;7759;52.528;13.346;2023-02-22T12:26:47;12.13;;;2.77;;
15317;SDS011;7759;52.528;13.346;2023-02-22T12:29:21;8.03;;;2.10;;
15317;SDS011;7759;52.528;13.346;2023-02-22T12:31:51;8.87;;;1.90;;
15317;SDS011;7759;52.528;13.346;2023-02-22T12:36:52;5.83;;;1.90;;
15317;SDS011;7759;52.528;13.346;2023-02-22T12:39:43;6.17;;;1.40;;
15317;SDS011;7759;52.528;13.346;2023-02-22T12:42:25;7.97;;;1.63;;
15317;SDS011;7759;52.528;13.346;2023-02-22T12:44:55;10.47;;;2.77;;
15317;SDS011;7759;52.528;13.346;2023-02-22T12:47:25;10.10;;;1.73;;
15317;SDS011;7759;52.528;13.346;2023-02-22T12:49:57;8.07;;;2.27;;
15317;SDS011;7759;52.528;13.346;2023-02-22T12:52:44;8.53;;;2.20;;
15317;SDS011;7759;52.528;13.346;2023-02-22T12:55:22;6.50;;;1.87;;
15317;SDS011;7759;52.528;13.346;2023-02-22T12:57:54;9.60;;;2.00;;
15317;SDS011;7759;52.528;13.346;2023-02-22T13:00:23;4.97;;;1.83;;
15317;SDS011;7759;52.528;13.346;2023-02-22T13:03:05;8.97;;;2.30;;
15317;SDS011;7759;52.528;13.346;2023-02-22T13:05:37;7.83;;;1.97;;
15317;SDS011;7759;52.528;13.346;2023-02-22T13:08:08;15.73;;;2.10;;
15317;SDS011;7759;52.528;13.346;2023-02-22T13:10:42;6.80;;;1.43;;
15317;SDS011;7759;52.528;13.346;2023-02-22T13:13:16;3.87;;;1.47;;
15317;SDS011;7759;52.528;13.346;2023-02-22T13:15:51;7.90;;;1.50;;
15317;SDS011;7759;52.528;13.346;2023-02-22T13:21:13;9.30;;;1.80;;
15317;SDS011;7759;52.528;13.346;2023-02-22T13:26:32;9.47;;;2.10;;
15317;SDS011;7759;52.528;13.346;2023-02-22T13:29:12;12.20;;;4.03;;
15317;SDS011;7759;52.528;13.346;2023-02-22T13:31:46;8.37;;;1.80;;
15317;SDS011;7759;52.528;13.346;2023-02-22T13:37:00;6.33;;;1.53;;
15317;SDS011;7759;52.528;13.346;2023-02-22T13:39:48;10.70;;;1.80;;
15317;SDS011;7759;52.528;13.346;2023-02-22T13:42:37;11.63;;;2.63;;
15317;SDS011;7759;52.528;13.346;2023-02-22T13:45:15;13.90;;;3.03;;
15317;SDS011;7759;52.528;13.346;2023-02-22T13:47:48;8.37;;;1.70;;
15317;SDS011;7759;52.528;13.346;2023-02-22T13:50:29;6.47;;;2.33;;
15317;SDS011;7759;52.528;13.346;2023-02-22T13:52:59;9.50;;;2.30;;
15317;SDS011;7759;52.528;13.346;2023-02-22T13:55:28;6.70;;;1.50;;
15317;SDS011;7759;52.528;13.346;2023-02-22T13:58:01;7.30;;;1.27;;
15317;SDS011;7759;52.528;13.346;2023-02-22T14:03:27;8.43;;;2.13;;
15317;SDS011;7759;52.528;13.346;2023-02-22T14:05:53;8.83;;;1.70;;
15317;SDS011;7759;52.528;13.346;2023-02-22T14:21:08;9.23;;;1.97;;
15317;SDS011;7759;52.528;13.346;2023-02-22T14:23:38;7.23;;;1.77;;
15317;SDS011;7759;52.528;13.346;2023-02-22T14:31:19;5.77;;;2.27;;
15317;SDS011;7759;52.528;13.346;2023-02-22T14:34:05;8.70;;;2.03;;
15317;SDS011;7759;52.528;13.346;2023-02-22T14:41:49;5.03;;;1.83;;
15317;SDS011;7759;52.528;13.346;2023-02-22T14:44:20;8.67;;;2.13;;
15317;SDS011;7759;52.528;13.346;2023-02-22T14:46:47;8.77;;;2.07;;
15317;SDS011;7759;52.528;13.346;2023-02-22T14:49:14;12.10;;;2.73;;
15317;SDS011;7759;52.528;13.346;2023-02-22T14:51:43;9.67;;;2.20;;
15317;SDS011;7759;52.528;13.346;2023-02-22T14:54:34;7.17;;;1.50;;
15317;SDS011;7759;52.528;13.346;2023-02-22T15:00:06;7.83;;;1.60;;
15317;SDS011;7759;52.528;13.346;2023-02-22T15:02:58;10.43;;;1.97;;
15317;SDS011;7759;52.528;13.346;2023-02-22T15:05:26;10.20;;;3.50;;
15317;SDS011;7759;52.528;13.346;2023-02-22T15:07:55;8.20;;;1.70;;
15317;SDS011;7759;52.528;13.346;2023-02-22T15:13:22;6.10;;;1.97;;
15317;SDS011;7759;52.528;13.346;2023-02-22T15:15:41;9.13;;;2.17;;
15317;SDS011;7759;52.528;13.346;2023-02-22T15:18:17;4.43;;;1.40;;
15317;SDS011;7759;52.528;13.346;2023-02-22T15:20:44;13.23;;;2.23;;
15317;SDS011;7759;52.528;13.346;2023-02-22T15:23:13;7.43;;;1.70;;
15317;SDS011;7759;52.528;13.346;2023-02-22T15:25:39;5.53;;;1.33;;
15317;SDS011;7759;52.528;13.346;2023-02-22T15:28:06;7.23;;;1.80;;
15317;SDS011;7759;52.528;13.346;2023-02-22T15:30:33;5.50;;;1.20;;
15317;SDS011;7759;52.528;13.346;2023-02-22T15:33:09;8.97;;;1.77;;
15317;SDS011;7759;52.528;13.346;2023-02-22T15:35:36;8.67;;;1.80;;
15317;SDS011;7759;52.528;13.346;2023-02-22T15:38:03;9.17;;;2.17;;
15317;SDS011;7759;52.528;13.346;2023-02-22T15:40:33;8.40;;;2.23;;
15317;SDS011;7759;52.528;13.346;2023-02-22T15:43:00;7.90;;;2.70;;
15317;SDS011;7759;52.528;13.346;2023-02-22T15:45:27;10.27;;;2.30;;
15317;SDS011;7759;52.528;13.346;2023-02-22T15:47:54;8.60;;;1.90;;
15317;SDS011;7759;52.528;13.346;2023-02-22T15:50:24;8.03;;;2.13;;
15317;SDS011;7759;52.528;13.346;2023-02-22T15:55:23;9.83;;;2.40;;
15317;SDS011;7759;52.528;13.346;2023-02-22T15:57:50;5.10;;;1.80;;
15317;SDS011;7759;52.528;13.346;2023-02-22T16:00:20;6.03;;;1.93;;
15317;SDS011;7759;52.528;13.346;2023-02-22T16:02:46;8.27;;;2.17;;
15317;SDS011;7759;52.528;13.346;2023-02-22T16:05:14;7.10;;;1.80;;
15317;SDS011;7759;52.528;13.346;2023-02-22T16:07:43;7.67;;;2.40;;
15317;SDS011;7759;52.528;13.346;2023-02-22T16:10:17;8.40;;;2.33;;
15317;SDS011;7759;52.528;13.346;2023-02-22T16:12:45;10.67;;;2.17;;
15317;SDS011;7759;52.528;13.346;2023-02-22T16:15:16;7.43;;;2.43;;